Time;durP1;ratioP1;P1;durP2;ratioP2;P2;SDS_P1;SDS_P2;PMS_P1;PMS_P2;Temp;Humidity;BMP_temperature;BMP_pressure;BME280_temperature;BME280_humidity;BME280_pressure;Samples;Min_cycle;Max_cycle;Signal;HPM_P1;HPM_P2
2023/09/09 00:01:18;;;;;;;15.20;12.40;;;;;;;18.48;100.00;98212.78;4977108;28;20404;-83
2023/09/09 00:03:45;;;;;;;15.90;12.60;;;;;;;18.43;100.00;98217.75;4976634;28;20210;-83
2023/09/09 00:06:12;;;;;;;15.93;13.20;;;;;;;18.40;100.00;98219.91;4976836;28;20214;-83
2023/09/09 00:08:39;;;;;;;16.47;13.20;;;;;;;18.34;100.00;98215.97;4977141;28;20214;-83
2023/09/09 00:11:05;;;;;;;17.37;13.77;;;;;;;18.37;100.00;98221.03;4976350;28;20234;-83
2023/09/09 00:13:33;;;;;;;15.80;13.13;;;;;;;18.32;100.00;98217.13;4977337;28;20775;-83
2023/09/09 00:16:00;;;;;;;15.33;12.67;;;;;;;18.26;100.00;98218.56;4977407;28;20217;-83
2023/09/09 00:18:26;;;;;;;15.33;12.17;;;;;;;18.21;100.00;98212.81;4977141;28;20635;-83
2023/09/09 00:20:53;;;;;;;15.83;12.53;;;;;;;18.16;100.00;98209.75;4976671;28;20234;-83
2023/09/09 00:23:20;;;;;;;14.90;12.60;;;;;;;18.11;100.00;98212.03;4977538;28;20214;-83
2023/09/09 00:25:47;;;;;;;15.93;13.53;;;;;;;18.12;100.00;98212.88;4976790;28;20221;-83
2023/09/09 00:28:14;;;;;;;16.93;13.60;;;;;;;18.11;100.00;98214.69;4976856;28;20210;-83
2023/09/09 00:30:42;;;;;;;15.40;13.27;;;;;;;18.10;100.00;98213.03;4976723;28;20250;-83
2023/09/09 00:33:09;;;;;;;16.50;13.57;;;;;;;18.08;100.00;98211.47;4977087;28;20211;-83
2023/09/09 00:35:38;;;;;;;16.23;12.77;;;;;;;18.01;100.00;98213.94;4977641;28;20218;-83
2023/09/09 00:38:05;;;;;;;16.97;13.80;;;;;;;17.99;100.00;98215.06;4977260;28;20281;-83
2023/09/09 00:40:32;;;;;;;17.10;14.43;;;;;;;17.93;100.00;98205.78;4980905;28;20241;-83
2023/09/09 00:42:58;;;;;;;18.83;13.97;;;;;;;17.90;100.00;98215.97;4980416;28;20211;-83
2023/09/09 00:45:26;;;;;;;17.00;14.03;;;;;;;17.83;100.00;98210.38;4980864;28;20217;-83
2023/09/09 00:47:54;;;;;;;18.63;14.03;;;;;;;17.80;100.00;98210.66;4980273;28;20210;-83
2023/09/09 00:50:21;;;;;;;16.30;13.63;;;;;;;17.80;100.00;98210.66;4980475;28;20230;-82
2023/09/09 00:52:47;;;;;;;16.90;13.97;;;;;;;17.81;100.00;98212.34;4980775;28;20244;-83
2023/09/09 00:55:15;;;;;;;16.70;14.33;;;;;;;17.78;100.00;98209.97;4980662;28;20210;-83
2023/09/09 00:57:42;;;;;;;16.00;13.77;;;;;;;17.77;100.00;98210.97;4980984;28;20213;-83
2023/09/09 01:00:10;;;;;;;16.20;13.73;;;;;;;17.76;100.00;98211.97;4980783;28;20311;-83
2023/09/09 01:02:37;;;;;;;16.50;13.40;;;;;;;17.73;100.00;98214.94;4981239;28;20211;-83
2023/09/09 01:05:05;;;;;;;15.77;13.20;;;;;;;17.73;100.00;98220.28;4981452;28;20261;-83
2023/09/09 01:07:42;;;;;;;17.63;14.27;;;;;;;17.67;100.00;98204.81;4980644;28;20214;-83
2023/09/09 01:10:09;;;;;;;17.00;13.93;;;;;;;17.63;100.00;98208.78;4981039;28;20789;-83
2023/09/09 01:12:36;;;;;;;15.90;13.50;;;;;;;17.58;100.00;98211.06;4981854;28;20310;-83
2023/09/09 01:15:02;;;;;;;15.50;13.80;;;;;;;17.52;100.00;98216.16;4983402;28;20241;-83
2023/09/09 01:17:29;;;;;;;19.50;15.13;;;;;;;17.49;100.00;98217.28;4982374;28;20737;-82
2023/09/09 01:19:58;;;;;;;17.23;14.73;;;;;;;17.43;100.00;98211.69;4978739;28;20215;-83
2023/09/09 01:22:33;;;;;;;17.67;14.57;;;;;;;17.34;100.00;98218.72;4978320;28;20238;-83
2023/09/09 01:25:00;;;;;;;19.50;15.40;;;;;;;17.30;100.00;98222.66;4978646;28;20664;-83
2023/09/09 01:27:26;;;;;;;16.90;14.43;;;;;;;17.24;100.00;98220.56;4978664;28;20222;-83
2023/09/09 01:29:53;;;;;;;19.20;15.03;;;;;;;17.22;100.00;98219.88;4978497;28;20206;-83
2023/09/09 01:32:19;;;;;;;18.10;15.17;;;;;;;17.19;100.00;98219.34;4978010;28;20613;-83
2023/09/09 01:34:45;;;;;;;16.50;14.20;;;;;;;17.16;100.00;98219.59;4978406;28;20207;-83
2023/09/09 01:37:12;;;;;;;17.10;14.57;;;;;;;17.16;100.00;98216.94;4978223;28;20222;-83
2023/09/09 01:39:40;;;;;;;18.63;14.80;;;;;;;17.13;100.00;98212.72;4978038;28;20266;-83
2023/09/09 01:42:07;;;;;;;17.83;14.40;;;;;;;17.10;100.00;98220.19;4978307;28;20241;-83
2023/09/09 01:44:33;;;;;;;16.30;13.90;;;;;;;17.06;100.00;98224.97;4977688;28;20222;-83
2023/09/09 01:46:59;;;;;;;17.30;14.50;;;;;;;17.03;100.00;98224.41;4977945;28;20707;-83
2023/09/09 01:49:26;;;;;;;18.13;14.27;;;;;;;16.99;100.00;98223.00;4977821;28;20218;-83
2023/09/09 01:51:52;;;;;;;17.17;13.77;;;;;;;16.94;100.00;98218.13;4977169;28;20238;-83
2023/09/09 01:54:19;;;;;;;16.47;12.97;;;;;;;16.88;100.00;98220.53;4978027;28;20215;-83
2023/09/09 01:56:47;;;;;;;16.77;13.67;;;;;;;16.83;100.00;98218.25;4978626;28;20582;-83
2023/09/09 01:59:13;;;;;;;17.43;13.13;;;;;;;16.76;100.00;98217.16;4978644;28;20220;-83
2023/09/09 02:01:40;;;;;;;15.93;12.57;;;;;;;16.74;100.00;98215.59;4978117;28;20254;-83
2023/09/09 02:04:06;;;;;;;16.43;13.50;;;;;;;16.72;100.00;98210.44;4978563;28;20226;-83
2023/09/09 02:06:33;;;;;;;18.43;14.07;;;;;;;16.73;100.00;98206.78;4978163;28;20218;-83
2023/09/09 02:09:01;;;;;;;17.40;13.83;;;;;;;16.71;100.00;98206.06;4977910;28;20257;-83
2023/09/09 02:11:27;;;;;;;17.50;13.73;;;;;;;16.69;100.00;98210.69;4976784;28;20235;-83
2023/09/09 02:13:55;;;;;;;19.47;14.90;;;;;;;16.67;100.00;98206.50;4977844;28;20219;-83
2023/09/09 02:16:21;;;;;;;16.67;13.20;;;;;;;16.66;100.00;98207.47;4977144;28;20610;-83
2023/09/09 02:18:48;;;;;;;14.10;12.03;;;;;;;16.65;100.00;98209.28;4977953;28;20682;-83
2023/09/09 02:21:14;;;;;;;16.50;12.97;;;;;;;16.64;100.00;98207.59;4977414;28;20249;-83
2023/09/09 02:23:41;;;;;;;16.00;13.20;;;;;;;16.64;100.00;98202.28;4977400;28;20206;-83
2023/09/09 02:26:08;;;;;;;16.70;12.70;;;;;;;16.65;100.00;98203.94;4977485;28;20686;-83
2023/09/09 02:28:35;;;;;;;17.47;13.37;;;;;;;16.67;100.00;98196.66;4977489;28;20829;-83
2023/09/09 02:31:02;;;;;;;17.30;13.47;;;;;;;16.68;100.00;98203.69;4977263;28;20231;-83
2023/09/09 02:33:29;;;;;;;15.37;12.93;;;;;;;16.65;100.00;98197.78;4977470;28;20219;-83
2023/09/09 02:35:59;;;;;;;15.83;13.47;;;;;;;16.63;100.00;98205.94;4977113;28;20225;-83
2023/09/09 02:38:26;;;;;;;17.20;13.93;;;;;;;16.62;100.00;98196.25;4978103;28;20215;-83
2023/09/09 02:40:52;;;;;;;15.47;13.37;;;;;;;16.61;100.00;98191.91;4976897;28;20725;-83
2023/09/09 02:43:19;;;;;;;15.07;12.80;;;;;;;16.60;100.00;98195.56;4977339;28;20218;-83
2023/09/09 02:45:45;;;;;;;17.23;14.00;;;;;;;16.61;100.00;98191.03;4977429;28;20269;-82
2023/09/09 02:48:13;;;;;;;16.60;13.53;;;;;;;16.60;100.00;98195.56;4977648;28;20225;-82
2023/09/09 02:50:39;;;;;;;17.87;14.17;;;;;;;16.59;100.00;98195.69;4976944;28;20245;-82
2023/09/09 02:53:06;;;;;;;16.27;13.63;;;;;;;16.57;100.00;98193.16;4977490;28;20235;-83
2023/09/09 02:55:32;;;;;;;17.07;13.83;;;;;;;16.56;100.00;98191.47;4977178;28;20231;-83
2023/09/09 02:57:59;;;;;;;15.70;13.60;;;;;;;16.52;100.00;98192.72;4976948;28;20215;-83
2023/09/09 03:00:25;;;;;;;17.50;14.30;;;;;;;16.49;100.00;98193.03;4976570;28;20241;-83
2023/09/09 03:02:52;;;;;;;18.20;13.73;;;;;;;16.50;100.00;98188.50;4975965;28;20674;-83
2023/09/09 03:05:19;;;;;;;17.97;14.40;;;;;;;16.50;100.00;98189.38;4977428;28;20215;-83
2023/09/09 03:07:48;;;;;;;17.50;13.77;;;;;;;16.45;100.00;98191.63;4976634;28;20214;-83
2023/09/09 03:10:14;;;;;;;15.70;13.37;;;;;;;16.43;100.00;98196.25;4976174;28;20234;-83
2023/09/09 03:12:41;;;;;;;17.13;13.97;;;;;;;16.42;100.00;98194.56;4976480;28;20230;-83
2023/09/09 03:15:08;;;;;;;16.80;14.37;;;;;;;16.42;100.00;98189.25;4976719;28;20210;-83
2023/09/09 03:17:35;;;;;;;19.10;14.13;;;;;;;16.43;100.00;98193.59;4976157;28;20305;-83
2023/09/09 03:20:05;;;;;;;18.90;15.40;;;;;;;16.39;100.00;98186.84;4976296;28;20214;-83
2023/09/09 03:22:32;;;;;;;18.23;15.57;;;;;;;16.41;100.00;98192.03;4975834;28;20211;-83
2023/09/09 03:24:59;;;;;;;21.83;16.13;;;;;;;16.38;100.00;98193.16;4976071;28;20210;-82
2023/09/09 03:27:25;;;;;;;18.93;15.13;;;;;;;16.38;100.00;98185.16;4976453;28;20221;-83
2023/09/09 03:29:52;;;;;;;18.47;14.90;;;;;;;16.37;100.00;98186.13;4976475;28;20217;-83
2023/09/09 03:32:18;;;;;;;19.17;16.07;;;;;;;16.37;100.00;98194.13;4975650;28;20238;-83
2023/09/09 03:34:45;;;;;;;19.40;15.33;;;;;;;16.36;100.00;98195.09;4976389;28;20222;-82
2023/09/09 03:37:11;;;;;;;18.73;15.73;;;;;;;16.35;100.00;98185.41;4976875;28;20684;-83
2023/09/09 03:39:39;;;;;;;18.57;15.10;;;;;;;16.35;100.00;98184.56;4976543;28;20569;-83
2023/09/09 03:42:05;;;;;;;20.57;15.50;;;;;;;16.36;100.00;98187.09;4976736;28;20313;-83
2023/09/09 03:44:32;;;;;;;19.83;16.00;;;;;;;16.34;100.00;98183.72;4976904;28;20210;-83
2023/09/09 03:46:58;;;;;;;20.40;16.00;;;;;;;16.35;100.00;98185.41;4976591;28;20218;-83
2023/09/09 03:49:25;;;;;;;18.80;15.00;;;;;;;16.34;100.00;98189.03;4976944;28;20222;-83
2023/09/09 03:51:52;;;;;;;19.43;15.20;;;;;;;16.32;100.00;98184.84;4976148;28;20305;-82
2023/09/09 03:54:18;;;;;;;19.67;15.77;;;;;;;16.28;100.00;98186.94;4977168;28;20211;-83
2023/09/09 03:56:46;;;;;;;21.20;16.33;;;;;;;16.27;100.00;98187.09;4977093;28;20224;-83
2023/09/09 03:59:12;;;;;;;20.57;16.03;;;;;;;16.25;100.00;98183.72;4976956;28;20215;-83
2023/09/09 04:01:39;;;;;;;20.00;15.37;;;;;;;16.19;100.00;98189.59;4975452;28;20234;-83
2023/09/09 04:04:06;;;;;;;20.90;15.27;;;;;;;16.16;100.00;98189.91;4976435;28;20210;-83
2023/09/09 04:06:33;;;;;;;20.00;15.13;;;;;;;16.12;100.00;98198.31;4975997;28;20207;-82
2023/09/09 04:08:59;;;;;;;21.23;15.07;;;;;;;16.08;100.00;98188.91;4975988;28;20221;-82
2023/09/09 04:11:25;;;;;;;19.40;15.10;;;;;;;16.02;100.00;98189.47;4975763;28;20242;-82
2023/09/09 04:13:53;;;;;;;21.07;15.13;;;;;;;15.98;100.00;98192.38;4975553;28;20226;-83
2023/09/09 04:16:20;;;;;;;20.33;15.93;;;;;;;15.94;100.00;98197.31;4975839;28;20222;-82
2023/09/09 04:18:46;;;;;;;18.07;14.70;;;;;;;15.91;100.00;98194.91;4975673;28;20226;-83
2023/09/09 04:21:13;;;;;;;19.40;15.17;;;;;;;15.95;100.00;98191.00;4975458;28;20227;-83
2023/09/09 04:23:39;;;;;;;21.97;16.47;;;;;;;15.98;100.00;98196.03;4976206;28;20203;-83
2023/09/09 04:26:06;;;;;;;20.77;16.33;;;;;;;16.00;100.00;98199.44;4976382;28;20214;-83
2023/09/09 04:28:32;;;;;;;21.57;16.07;;;;;;;16.02;100.00;98194.78;4977259;28;20649;-82
2023/09/09 04:31:00;;;;;;;21.87;16.80;;;;;;;16.01;100.00;98195.78;4976958;28;20234;-83
2023/09/09 04:33:26;;;;;;;21.70;16.77;;;;;;;16.08;100.00;98191.56;4977438;28;20238;-83
2023/09/09 04:35:53;;;;;;;24.20;17.00;;;;;;;16.13;100.00;98194.66;4977653;28;20498;-83
2023/09/09 04:38:22;;;;;;;22.23;17.33;;;;;;;16.09;100.00;98194.94;4977932;28;20220;-83
2023/09/09 04:40:49;;;;;;;22.33;16.57;;;;;;;16.09;100.00;98194.94;4976294;28;20242;-83
2023/09/09 04:43:16;;;;;;;21.73;17.03;;;;;;;16.13;100.00;98191.00;4975860;28;20694;-83
2023/09/09 04:45:42;;;;;;;22.67;17.27;;;;;;;16.12;100.00;98187.66;4976615;28;20246;-83
2023/09/09 04:48:10;;;;;;;23.13;17.37;;;;;;;16.12;100.00;98195.66;4976581;28;20225;-83
2023/09/09 04:50:37;;;;;;;25.53;17.77;;;;;;;16.09;100.00;98194.94;4975589;28;20293;-83
2023/09/09 04:53:05;;;;;;;25.57;18.47;;;;;;;16.13;100.00;98189.34;4976121;28;20253;-83
2023/09/09 04:55:32;;;;;;;23.53;17.33;;;;;;;16.16;100.00;98182.72;4975622;28;20206;-82
2023/09/09 04:57:58;;;;;;;25.30;18.60;;;;;;;16.15;100.00;98194.38;4976020;28;20211;-83
2023/09/09 05:00:25;;;;;;;24.00;18.50;;;;;;;16.16;100.00;98190.72;4975627;28;20234;-83
2023/09/09 05:02:51;;;;;;;23.20;18.20;;;;;;;16.19;100.00;98193.13;4976130;28;20213;-83
2023/09/09 05:05:19;;;;;;;23.23;17.70;;;;;;;16.24;100.00;98192.69;4976146;28;20211;-83
2023/09/09 05:07:45;;;;;;;23.10;17.83;;;;;;;16.27;100.00;98198.59;4976169;28;20218;-83
2023/09/09 05:10:13;;;;;;;20.77;17.23;;;;;;;16.27;100.00;98197.78;4976171;28;20673;-83
2023/09/09 05:12:40;;;;;;;22.17;17.83;;;;;;;16.29;100.00;98196.66;4976499;28;20235;-83
2023/09/09 05:15:10;;;;;;;22.07;16.63;;;;;;;16.32;100.00;98196.34;4976646;28;20218;-83
2023/09/09 05:17:36;;;;;;;23.93;17.30;;;;;;;16.34;100.00;98199.72;4976431;28;20221;-83
2023/09/09 05:20:03;;;;;;;22.63;17.30;;;;;;;16.35;100.00;98196.06;4976761;28;20207;-83
2023/09/09 05:22:31;;;;;;;22.07;17.97;;;;;;;16.37;100.00;98194.13;4978975;28;20214;-82
2023/09/09 05:24:58;;;;;;;23.10;17.13;;;;;;;16.41;100.00;98200.03;4978309;28;20559;-83
2023/09/09 05:27:24;;;;;;;21.77;17.60;;;;;;;16.41;100.00;98208.88;4978826;28;20559;-83
2023/09/09 05:29:50;;;;;;;22.97;17.90;;;;;;;16.43;100.00;98208.75;4978058;28;20207;-83
2023/09/09 05:32:17;;;;;;;21.47;17.47;;;;;;;16.46;100.00;98213.81;4977995;28;20239;-83
2023/09/09 05:34:44;;;;;;;22.73;16.37;;;;;;;16.49;100.00;98214.38;4978410;28;20214;-83
2023/09/09 05:37:10;;;;;;;24.80;17.63;;;;;;;16.54;100.00;98212.13;4978029;28;20732;-83
2023/09/09 05:39:38;;;;;;;22.13;17.20;;;;;;;16.59;100.00;98209.84;4978522;28;20215;-83
2023/09/09 05:42:06;;;;;;;22.53;17.60;;;;;;;16.68;100.00;98214.34;4977881;28;20230;-83
2023/09/09 05:44:35;;;;;;;23.47;17.73;;;;;;;16.73;100.00;98217.44;4978188;28;20206;-83
2023/09/09 05:47:02;;;;;;;22.73;17.23;;;;;;;16.77;100.00;98224.16;4978549;28;20210;-83
2023/09/09 05:49:28;;;;;;;20.70;16.60;;;;;;;16.83;100.00;98222.78;4979082;28;20237;-83
2023/09/09 05:51:55;;;;;;;26.13;18.13;;;;;;;16.91;100.00;98225.56;4978341;28;20254;-83
2023/09/09 05:54:21;;;;;;;21.53;16.83;;;;;;;17.00;100.00;98230.06;4979318;28;20257;-83
2023/09/09 05:56:50;;;;;;;22.50;17.23;;;;;;;17.07;100.00;98231.16;4979311;28;20214;-83
2023/09/09 05:59:16;;;;;;;21.97;17.77;;;;;;;17.14;100.00;98232.28;4979499;28;20211;-83
2023/09/09 06:01:43;;;;;;;22.07;17.43;;;;;;;17.19;100.00;98228.16;4979727;28;20248;-83
2023/09/09 06:04:09;;;;;;;20.93;17.20;;;;;;;17.26;100.00;98234.63;4979473;28;20607;-83
2023/09/09 06:06:36;;;;;;;20.77;17.20;;;;;;;17.33;100.00;98237.56;4979371;28;20211;-83
2023/09/09 06:09:03;;;;;;;24.80;17.97;;;;;;;17.42;100.00;98242.06;4979200;28;20677;-83
2023/09/09 06:11:30;;;;;;;22.33;17.20;;;;;;;17.47;100.00;98239.78;4979377;28;20270;-83
2023/09/09 06:13:58;;;;;;;23.17;17.70;;;;;;;17.57;100.00;98240.59;4977948;28;20234;-83
2023/09/09 06:16:25;;;;;;;21.20;16.93;;;;;;;17.66;100.00;98245.06;4978598;28;20221;-83
2023/09/09 06:18:51;;;;;;;20.60;16.17;;;;;;;17.71;100.00;98249.00;4979057;28;20217;-83
2023/09/09 06:21:18;;;;;;;21.37;17.53;;;;;;;17.81;100.00;98249.78;4979719;28;20230;-83
2023/09/09 06:23:44;;;;;;;20.63;16.33;;;;;;;17.90;100.00;98248.03;4979817;28;20211;-83
2023/09/09 06:26:11;;;;;;;21.77;17.03;;;;;;;18.03;100.00;98254.75;4979800;28;20206;-83
2023/09/09 06:28:37;;;;;;;21.37;16.37;;;;;;;18.13;100.00;98260.88;4979886;28;20215;-83
2023/09/09 06:31:07;;;;;;;20.63;15.83;;;;;;;18.23;100.00;98267.00;4978999;28;20234;-83
2023/09/09 06:33:33;;;;;;;18.07;15.03;;;;;;;18.31;100.00;98256.44;4979786;28;20233;-83
2023/09/09 06:36:00;;;;;;;18.43;15.33;;;;;;;18.40;100.00;98257.38;4978614;28;20610;-83
2023/09/09 06:38:26;;;;;;;19.40;15.67;;;;;;;18.49;100.00;98262.66;4979018;28;20237;-83
2023/09/09 06:40:53;;;;;;;19.93;15.40;;;;;;;18.58;100.00;98267.09;4978540;28;20258;-85
2023/09/09 06:43:21;;;;;;;18.93;15.40;;;;;;;18.71;100.00;98264.88;4982911;28;20294;-82
2023/09/09 06:45:47;;;;;;;19.10;15.03;;;;;;;18.80;100.00;98266.63;4982340;28;20207;-82
2023/09/09 06:48:16;;;;;;;18.37;15.23;;;;;;;18.93;100.00;98267.09;4982955;28;20214;-82
2023/09/09 06:50:45;;;;;;;16.17;14.40;;;;;;;19.03;100.00;98267.81;4981951;28;20322;-82
2023/09/09 06:53:11;;;;;;;18.57;14.37;;;;;;;19.09;100.00;98275.22;4982185;28;20317;-82
2023/09/09 06:55:38;;;;;;;17.77;14.40;;;;;;;19.21;100.00;98270.53;4983089;28;20218;-82
2023/09/09 06:58:04;;;;;;;17.87;15.27;;;;;;;19.30;100.00;98275.78;4983841;28;20241;-82
2023/09/09 07:00:31;;;;;;;18.33;14.97;;;;;;;19.42;100.00;98279.88;4983317;28;20234;-82
2023/09/09 07:02:57;;;;;;;18.33;14.43;;;;;;;19.56;100.00;98287.34;4981424;28;20237;-82
2023/09/09 07:05:25;;;;;;;16.90;14.33;;;;;;;19.62;100.00;98284.03;4981297;28;20241;-82
2023/09/09 07:07:52;;;;;;;17.53;14.37;;;;;;;19.72;100.00;98289.28;4981142;28;20215;-82
2023/09/09 07:10:18;;;;;;;15.47;13.83;;;;;;;19.81;100.00;98286.47;4983874;28;20231;-82
2023/09/09 07:12:45;;;;;;;16.23;13.13;;;;;;;19.99;100.00;98299.84;4984562;28;20242;-82
2023/09/09 07:15:11;;;;;;;17.30;14.17;;;;;;;20.06;100.00;98285.63;4984395;28;20207;-82
2023/09/09 07:17:38;;;;;;;16.80;14.13;;;;;;;20.18;100.00;98288.88;4984341;28;20628;-82
2023/09/09 07:20:07;;;;;;;17.17;13.87;;;;;;;20.26;100.00;98292.44;4983727;28;20593;-82
2023/09/09 07:22:35;;;;;;;14.87;13.27;;;;;;;20.34;100.00;98297.81;4983937;28;20670;-82
2023/09/09 07:25:02;;;;;;;15.30;12.93;;;;;;;20.43;100.00;98287.97;4984715;28;20217;-82
2023/09/09 07:27:29;;;;;;;16.33;13.97;;;;;;;20.56;100.00;98285.63;4984593;28;20218;-82
2023/09/09 07:29:55;;;;;;;16.43;13.30;;;;;;;20.64;100.00;98293.69;4984213;28;20637;-82
2023/09/09 07:32:22;;;;;;;15.83;13.67;;;;;;;20.74;100.00;98291.72;4983509;28;20220;-82
2023/09/09 07:34:49;;;;;;;16.00;13.60;;;;;;;20.87;100.00;98298.31;4984817;28;20241;-83
2023/09/09 07:37:16;;;;;;;14.53;12.93;;;;;;;20.96;100.00;98289.25;4983484;28;20229;-82
2023/09/09 07:39:47;;;;;;;15.57;12.97;;;;;;;21.07;100.00;98288.94;4984355;28;20610;-82
2023/09/09 07:42:14;;;;;;;15.77;12.87;;;;;;;21.19;100.00;98284.06;4983367;28;20237;-82
2023/09/09 07:44:44;;;;;;;14.10;12.40;;;;;;;21.26;100.00;98293.97;4984155;28;20217;-82
2023/09/09 07:47:11;;;;;;;15.40;12.97;;;;;;;21.35;100.00;98287.59;4984470;28;20218;-82
2023/09/09 07:49:38;;;;;;;15.33;12.83;;;;;;;21.45;100.00;98290.09;4984328;28;20215;-82
2023/09/09 07:52:06;;;;;;;17.60;13.40;;;;;;;21.52;100.00;98283.03;4984072;28;20298;-83
2023/09/09 07:54:33;;;;;;;16.70;12.70;;;;;;;21.58;100.00;98282.34;4984833;28;20237;-83
2023/09/09 07:57:01;;;;;;;14.13;12.07;;;;;;;21.69;100.00;98284.72;4983355;28;20206;-82
2023/09/09 07:59:28;;;;;;;16.20;13.27;;;;;;;21.87;100.00;98288.00;4982767;28;20689;-82
2023/09/09 08:01:55;;;;;;;15.47;12.77;;;;;;;21.84;100.00;98291.91;4982466;28;20242;-82
2023/09/09 08:04:21;;;;;;;16.07;13.27;;;;;;;21.91;100.00;98284.81;4983985;28;20214;-82
2023/09/09 08:06:52;;;;;;;14.33;12.50;;;;;;;21.98;100.00;98285.81;4983512;28;20213;-83
2023/09/09 08:09:19;;;;;;;13.60;11.87;;;;;;;22.06;100.00;98287.63;4983280;28;20230;-82
2023/09/09 08:11:45;;;;;;;13.83;12.00;;;;;;;22.18;100.00;98294.31;4980066;28;20238;-82
2023/09/09 08:14:14;;;;;;;14.27;12.53;;;;;;;22.37;100.00;98292.03;4980151;28;20230;-82
2023/09/09 08:16:40;;;;;;;14.07;12.40;;;;;;;22.40;100.00;98291.69;4980066;28;20288;-82
2023/09/09 08:19:07;;;;;;;14.43;12.30;;;;;;;22.48;100.00;98294.38;4980676;28;20219;-83
2023/09/09 08:21:33;;;;;;;14.73;12.63;;;;;;;22.65;100.00;98290.56;4979794;28;20235;-82
2023/09/09 08:24:00;;;;;;;14.23;12.17;;;;;;;22.79;100.00;98294.38;4982117;28;20285;-82
2023/09/09 08:26:27;;;;;;;13.50;11.40;;;;;;;22.81;100.00;98290.44;4980923;28;20297;-82
2023/09/09 08:28:54;;;;;;;12.77;11.47;;;;;;;22.89;100.00;98293.13;4981529;28;20207;-83
2023/09/09 08:31:22;;;;;;;12.77;11.47;;;;;;;23.04;100.00;98291.31;4981554;28;20701;-83
2023/09/09 08:33:48;;;;;;;13.70;11.80;;;;;;;23.19;100.00;98292.25;4982682;28;20231;-83
2023/09/09 08:36:16;;;;;;;13.40;11.40;;;;;;;23.43;100.00;98292.03;4981977;28;20207;-83
2023/09/09 08:38:42;;;;;;;13.10;11.33;;;;;;;23.52;99.53;98290.13;4981756;28;20682;-83
2023/09/09 08:41:12;;;;;;;12.43;11.13;;;;;;;23.53;96.97;98284.50;4981399;28;20231;-83
2023/09/09 08:43:57;;;;;;;13.23;11.67;;;;;;;23.55;95.23;98282.50;4981613;28;20566;-82
2023/09/09 08:46:25;;;;;;;14.67;13.00;;;;;;;23.74;94.81;98289.19;4980229;28;20213;-82
2023/09/09 08:48:52;;;;;;;16.40;13.50;;;;;;;23.89;92.87;98280.13;4980633;28;20219;-82
2023/09/09 08:51:25;;;;;;;14.53;12.93;;;;;;;24.01;94.50;98284.03;4980050;28;20258;-83
2023/09/09 08:53:53;;;;;;;19.93;14.07;;;;;;;24.04;93.03;98282.84;4981063;28;20244;-83
2023/09/09 08:56:21;;;;;;;19.00;13.30;;;;;;;24.17;92.32;98280.31;4980603;28;20217;-83
2023/09/09 08:58:47;;;;;;;15.37;13.77;;;;;;;24.38;89.50;98278.50;4980847;28;20283;-83
2023/09/09 09:01:15;;;;;;;15.23;13.17;;;;;;;24.43;89.17;98281.50;4983815;28;20317;-83
2023/09/09 09:03:45;;;;;;;15.37;12.63;;;;;;;24.51;89.19;98273.25;4984048;28;20221;-82
2023/09/09 09:06:12;;;;;;;14.80;13.07;;;;;;;24.72;88.02;98280.59;4984624;28;20223;-83
2023/09/09 09:08:38;;;;;;;12.97;10.87;;;;;;;24.89;84.53;98272.09;4984527;28;20233;-83
2023/09/09 09:11:06;;;;;;;12.60;11.30;;;;;;;25.07;82.56;98263.50;4986149;28;20245;-83
2023/09/09 09:13:34;;;;;;;13.30;10.87;;;;;;;24.99;81.23;98263.66;4984122;28;20230;-83
2023/09/09 09:16:01;;;;;;;15.57;11.40;;;;;;;24.95;79.70;98254.25;4984241;28;20254;-83
2023/09/09 09:18:28;;;;;;;12.77;11.40;;;;;;;24.97;83.10;98263.84;4984603;28;20211;-83
2023/09/09 09:21:06;;;;;;;13.67;11.80;;;;;;;25.10;83.20;98266.66;4984301;28;20230;-83
2023/09/09 09:23:32;;;;;;;12.43;11.13;;;;;;;25.17;79.04;98258.63;4984881;28;20207;-83
2023/09/09 09:25:59;;;;;;;12.73;10.40;;;;;;;25.16;80.17;98268.59;4984952;28;20207;-83
2023/09/09 09:28:29;;;;;;;11.53;10.17;;;;;;;25.28;81.13;98266.22;4984197;28;20607;-83
2023/09/09 09:30:56;;;;;;;10.40;9.37;;;;;;;25.40;77.68;98254.69;4983825;28;20237;-83
2023/09/09 09:33:24;;;;;;;11.00;9.90;;;;;;;25.57;76.11;98250.66;4984288;28;20242;-82
2023/09/09 09:35:51;;;;;;;12.10;10.03;;;;;;;25.58;75.31;98244.22;4984399;28;20215;-83
2023/09/09 09:38:19;;;;;;;10.63;9.53;;;;;;;25.65;74.44;98245.09;4984674;28;20221;-83
2023/09/09 09:40:45;;;;;;;10.50;9.40;;;;;;;25.62;74.19;98245.50;4984598;28;20226;-83
2023/09/09 09:43:18;;;;;;;9.73;8.73;;;;;;;25.63;73.97;98239.06;4984074;28;20303;-83
2023/09/09 09:45:45;;;;;;;11.53;9.93;;;;;;;25.79;74.20;98244.13;4984640;28;20211;-83
2023/09/09 09:48:11;;;;;;;11.77;10.43;;;;;;;25.90;74.00;98240.09;4984042;28;20221;-83
2023/09/09 09:50:40;;;;;;;11.80;10.60;;;;;;;26.15;73.44;98244.81;4978049;28;20243;-83
2023/09/09 09:53:08;;;;;;;11.13;9.57;;;;;;;26.28;72.83;98244.84;4978475;28;20222;-83
2023/09/09 09:55:38;;;;;;;10.63;9.52;;;;;;;26.35;71.23;98234.91;4977702;28;20289;-83
2023/09/09 09:58:07;;;;;;;11.13;9.93;;;;;;;26.25;71.89;98239.84;4977164;28;20670;-83
2023/09/09 10:00:34;;;;;;;11.80;10.25;;;;;;;26.29;72.94;98246.56;4976467;28;20245;-83
2023/09/09 10:03:02;;;;;;;11.60;10.40;;;;;;;26.42;72.87;98241.19;4976685;28;20297;-82
2023/09/09 10:05:30;;;;;;;12.37;10.57;;;;;;;26.64;70.19;98239.22;4977031;28;20606;-83
2023/09/09 10:08:07;;;;;;;11.27;9.90;;;;;;;26.70;69.48;98222.94;4978869;28;20211;-80
2023/09/09 10:10:42;;;;;;;11.23;10.13;;;;;;;26.76;70.35;98232.97;4977881;28;20242;-83
2023/09/09 10:13:14;;;;;;;11.10;9.97;;;;;;;26.72;69.45;98230.88;4977228;28;20206;-83
2023/09/09 10:15:41;;;;;;;11.13;9.47;;;;;;;26.74;69.11;98224.22;4976956;28;20316;-83
2023/09/09 10:18:10;;;;;;;10.93;9.70;;;;;;;26.94;69.11;98225.06;4978919;28;20214;-83
2023/09/09 10:20:40;;;;;;;11.30;10.17;;;;;;;26.77;69.92;98223.78;4976468;28;20226;-80
2023/09/09 10:23:07;;;;;;;11.20;10.00;;;;;;;26.88;69.24;98225.09;4976607;28;20297;-83
2023/09/09 10:25:35;;;;;;;9.93;8.80;;;;;;;26.92;66.63;98212.75;4976428;28;20207;-83
2023/09/09 10:28:16;;;;;;;8.97;7.97;;;;;;;26.97;64.71;98207.56;4976276;28;20211;-83
2023/09/09 10:30:43;;;;;;;9.38;8.48;;;;;;;27.09;64.71;98212.16;4976500;28;20242;-83
2023/09/09 10:33:13;;;;;;;9.37;8.17;;;;;;;27.10;64.47;98213.84;4976704;28;20611;-83
2023/09/09 10:35:44;;;;;;;8.40;7.57;;;;;;;27.03;63.80;98207.56;4976324;28;20234;-83
2023/09/09 10:38:12;;;;;;;8.80;7.78;;;;;;;27.04;62.22;98190.25;4977685;28;20243;-83
2023/09/09 10:40:40;;;;;;;8.97;7.90;;;;;;;27.21;60.98;98198.84;4977569;28;20230;-82
2023/09/09 10:43:08;;;;;;;9.00;8.02;;;;;;;27.25;61.72;98198.19;4978307;28;20220;-83
2023/09/09 10:45:42;;;;;;;10.30;8.67;;;;;;;27.36;61.86;98197.56;4979641;28;20213;-83
2023/09/09 10:48:10;;;;;;;8.45;7.70;;;;;;;27.38;60.59;98190.03;4979743;28;20215;-83
2023/09/09 10:50:41;;;;;;;8.73;7.82;;;;;;;27.39;60.06;98187.13;4978039;28;20227;-83
2023/09/09 10:53:15;;;;;;;8.68;7.55;;;;;;;27.38;58.94;98187.34;4979815;28;20230;-82
2023/09/09 10:55:42;;;;;;;9.13;8.18;;;;;;;27.48;61.29;98206.75;4980206;28;20245;-83
2023/09/09 10:58:10;;;;;;;8.50;7.60;;;;;;;27.57;59.83;98194.66;4980222;28;20215;-83
2023/09/09 11:00:39;;;;;;;9.32;8.25;;;;;;;27.63;58.95;98188.38;4979144;28;20597;-83
2023/09/09 11:03:10;;;;;;;8.50;7.63;;;;;;;27.72;59.05;98201.50;4979685;28;20218;-83
2023/09/09 11:05:58;;;;;;;7.77;7.03;;;;;;;27.75;59.11;98192.09;4982231;28;20560;-83
2023/09/09 11:08:29;;;;;;;8.32;7.53;;;;;;;27.83;59.53;98197.34;4983811;28;20653;-83
2023/09/09 11:11:06;;;;;;;8.27;7.50;;;;;;;27.94;58.34;98196.69;4981773;28;20242;-83
2023/09/09 11:13:43;;;;;;;7.35;6.75;;;;;;;27.96;57.06;98181.84;4981617;28;20214;-83